sensor_id;sensor_type;location;lat;lon;timestamp;temperature;humidity
19892;DHT22;10108;50.142;8.724;2023-06-26T00:00:25;21.80;95.60
19892;DHT22;10108;50.142;8.724;2023-06-26T00:02:51;21.70;95.70
19892;DHT22;10108;50.142;8.724;2023-06-26T00:05:17;21.70;95.80
19892;DHT22;10108;50.142;8.724;2023-06-26T00:07:44;21.70;95.80
19892;DHT22;10108;50.142;8.724;2023-06-26T00:10:10;21.70;96.00
19892;DHT22;10108;50.142;8.724;2023-06-26T00:12:36;21.70;96.30
19892;DHT22;10108;50.142;8.724;2023-06-26T00:15:03;21.70;96.40
19892;DHT22;10108;50.142;8.724;2023-06-26T00:17:29;21.70;96.30
19892;DHT22;10108;50.142;8.724;2023-06-26T00:19:55;21.60;96.20
19892;DHT22;10108;50.142;8.724;2023-06-26T00:22:21;21.60;96.40
19892;DHT22;10108;50.142;8.724;2023-06-26T00:24:47;21.60;96.50
19892;DHT22;10108;50.142;8.724;2023-06-26T00:27:14;21.60;96.70
19892;DHT22;10108;50.142;8.724;2023-06-26T00:29:40;21.50;96.50
19892;DHT22;10108;50.142;8.724;2023-06-26T00:32:06;21.50;96.40
19892;DHT22;10108;50.142;8.724;2023-06-26T00:34:33;21.50;96.40
19892;DHT22;10108;50.142;8.724;2023-06-26T00:36:59;21.40;96.40
19892;DHT22;10108;50.142;8.724;2023-06-26T00:39:26;21.40;96.60
19892;DHT22;10108;50.142;8.724;2023-06-26T00:41:52;21.40;96.80
19892;DHT22;10108;50.142;8.724;2023-06-26T00:44:21;21.40;96.70
19892;DHT22;10108;50.142;8.724;2023-06-26T00:46:47;21.40;96.50
19892;DHT22;10108;50.142;8.724;2023-06-26T00:49:14;21.40;96.60
19892;DHT22;10108;50.142;8.724;2023-06-26T00:51:41;21.30;96.80
19892;DHT22;10108;50.142;8.724;2023-06-26T00:54:07;21.30;96.90
19892;DHT22;10108;50.142;8.724;2023-06-26T00:56:34;21.30;96.90
19892;DHT22;10108;50.142;8.724;2023-06-26T00:59:00;21.30;97.00
19892;DHT22;10108;50.142;8.724;2023-06-26T01:01:27;21.30;97.00
19892;DHT22;10108;50.142;8.724;2023-06-26T01:03:53;21.20;97.20
19892;DHT22;10108;50.142;8.724;2023-06-26T01:06:22;21.30;97.70
19892;DHT22;10108;50.142;8.724;2023-06-26T01:08:50;21.30;97.40
19892;DHT22;10108;50.142;8.724;2023-06-26T01:11:18;21.20;97.20
19892;DHT22;10108;50.142;8.724;2023-06-26T01:13:44;21.20;97.20
19892;DHT22;10108;50.142;8.724;2023-06-26T01:16:11;21.20;97.40
19892;DHT22;10108;50.142;8.724;2023-06-26T01:18:39;21.20;97.70
19892;DHT22;10108;50.142;8.724;2023-06-26T01:21:08;21.20;97.80
19892;DHT22;10108;50.142;8.724;2023-06-26T01:23:54;21.20;97.80
19892;DHT22;10108;50.142;8.724;2023-06-26T01:26:23;21.20;97.50
19892;DHT22;10108;50.142;8.724;2023-06-26T01:28:53;21.20;97.50
19892;DHT22;10108;50.142;8.724;2023-06-26T01:31:19;21.10;97.70
19892;DHT22;10108;50.142;8.724;2023-06-26T01:33:46;21.10;97.90
19892;DHT22;10108;50.142;8.724;2023-06-26T01:36:13;21.10;97.90
19892;DHT22;10108;50.142;8.724;2023-06-26T01:38:39;21.10;98.00
19892;DHT22;10108;50.142;8.724;2023-06-26T01:41:06;21.00;97.90
19892;DHT22;10108;50.142;8.724;2023-06-26T01:43:57;21.00;98.10
19892;DHT22;10108;50.142;8.724;2023-06-26T01:46:39;21.10;98.40
19892;DHT22;10108;50.142;8.724;2023-06-26T01:52:32;21.00;98.10
19892;DHT22;10108;50.142;8.724;2023-06-26T01:58:02;21.00;98.20
19892;DHT22;10108;50.142;8.724;2023-06-26T02:00:31;21.00;98.40
19892;DHT22;10108;50.142;8.724;2023-06-26T02:02:57;20.90;98.80
19892;DHT22;10108;50.142;8.724;2023-06-26T02:05:24;20.90;98.70
19892;DHT22;10108;50.142;8.724;2023-06-26T02:07:50;20.90;98.70
19892;DHT22;10108;50.142;8.724;2023-06-26T02:10:17;20.90;98.90
19892;DHT22;10108;50.142;8.724;2023-06-26T02:12:43;20.90;98.80
19892;DHT22;10108;50.142;8.724;2023-06-26T02:15:12;20.90;98.80
19892;DHT22;10108;50.142;8.724;2023-06-26T02:17:39;20.90;98.70
19892;DHT22;10108;50.142;8.724;2023-06-26T02:20:06;20.80;98.60
19892;DHT22;10108;50.142;8.724;2023-06-26T02:22:36;20.80;98.70
19892;DHT22;10108;50.142;8.724;2023-06-26T02:25:02;20.80;98.80
19892;DHT22;10108;50.142;8.724;2023-06-26T02:27:28;20.80;98.90
19892;DHT22;10108;50.142;8.724;2023-06-26T02:29:54;20.70;98.90
19892;DHT22;10108;50.142;8.724;2023-06-26T02:32:20;20.70;99.00
19892;DHT22;10108;50.142;8.724;2023-06-26T02:34:49;20.70;99.20
19892;DHT22;10108;50.142;8.724;2023-06-26T02:37:18;20.70;99.20
19892;DHT22;10108;50.142;8.724;2023-06-26T02:39:44;20.70;99.10
19892;DHT22;10108;50.142;8.724;2023-06-26T02:42:10;20.70;99.00
19892;DHT22;10108;50.142;8.724;2023-06-26T02:44:36;20.60;99.00
19892;DHT22;10108;50.142;8.724;2023-06-26T02:47:03;20.60;99.00
19892;DHT22;10108;50.142;8.724;2023-06-26T02:49:30;20.70;99.10
19892;DHT22;10108;50.142;8.724;2023-06-26T02:51:56;20.60;99.20
19892;DHT22;10108;50.142;8.724;2023-06-26T02:54:27;20.60;99.20
19892;DHT22;10108;50.142;8.724;2023-06-26T02:56:58;20.60;99.20
19892;DHT22;10108;50.142;8.724;2023-06-26T02:59:28;20.60;99.20
19892;DHT22;10108;50.142;8.724;2023-06-26T03:01:55;20.50;99.40
19892;DHT22;10108;50.142;8.724;2023-06-26T03:04:27;20.50;99.30
19892;DHT22;10108;50.142;8.724;2023-06-26T03:06:53;20.50;99.30
19892;DHT22;10108;50.142;8.724;2023-06-26T03:09:20;20.50;99.30
19892;DHT22;10108;50.142;8.724;2023-06-26T03:11:46;20.40;99.30
19892;DHT22;10108;50.142;8.724;2023-06-26T03:14:12;20.40;99.40
19892;DHT22;10108;50.142;8.724;2023-06-26T03:16:38;20.40;99.60
19892;DHT22;10108;50.142;8.724;2023-06-26T03:19:05;20.40;99.60
19892;DHT22;10108;50.142;8.724;2023-06-26T03:21:39;20.40;99.70
19892;DHT22;10108;50.142;8.724;2023-06-26T03:24:05;20.40;99.60
19892;DHT22;10108;50.142;8.724;2023-06-26T03:26:32;20.40;99.70
19892;DHT22;10108;50.142;8.724;2023-06-26T03:28:59;20.40;99.70
19892;DHT22;10108;50.142;8.724;2023-06-26T03:31:26;20.30;99.70
19892;DHT22;10108;50.142;8.724;2023-06-26T03:33:52;20.30;99.60
19892;DHT22;10108;50.142;8.724;2023-06-26T03:36:18;20.30;99.60
19892;DHT22;10108;50.142;8.724;2023-06-26T03:38:45;20.30;99.70
19892;DHT22;10108;50.142;8.724;2023-06-26T03:41:12;20.30;99.60
19892;DHT22;10108;50.142;8.724;2023-06-26T03:43:38;20.30;99.60
19892;DHT22;10108;50.142;8.724;2023-06-26T03:46:18;20.30;99.60
19892;DHT22;10108;50.142;8.724;2023-06-26T03:48:44;20.30;99.80
19892;DHT22;10108;50.142;8.724;2023-06-26T03:51:10;20.30;99.90
19892;DHT22;10108;50.142;8.724;2023-06-26T03:53:37;20.30;99.90
19892;DHT22;10108;50.142;8.724;2023-06-26T03:56:04;20.30;99.90
19892;DHT22;10108;50.142;8.724;2023-06-26T03:58:31;20.30;99.90
19892;DHT22;10108;50.142;8.724;2023-06-26T04:00:57;20.30;99.90
19892;DHT22;10108;50.142;8.724;2023-06-26T04:03:24;20.30;99.90
19892;DHT22;10108;50.142;8.724;2023-06-26T04:05:50;20.30;99.90
19892;DHT22;10108;50.142;8.724;2023-06-26T04:08:17;20.30;99.90
19892;DHT22;10108;50.142;8.724;2023-06-26T04:10:43;20.30;99.90
19892;DHT22;10108;50.142;8.724;2023-06-26T04:13:11;20.30;99.90
19892;DHT22;10108;50.142;8.724;2023-06-26T04:15:37;20.30;99.90
19892;DHT22;10108;50.142;8.724;2023-06-26T04:18:04;20.30;99.90
19892;DHT22;10108;50.142;8.724;2023-06-26T04:20:30;20.30;99.90
19892;DHT22;10108;50.142;8.724;2023-06-26T04:22:56;20.30;99.90
19892;DHT22;10108;50.142;8.724;2023-06-26T04:25:22;20.40;99.90
19892;DHT22;10108;50.142;8.724;2023-06-26T04:27:48;20.40;99.90
19892;DHT22;10108;50.142;8.724;2023-06-26T04:30:15;20.40;99.90
19892;DHT22;10108;50.142;8.724;2023-06-26T04:32:41;20.40;99.90
19892;DHT22;10108;50.142;8.724;2023-06-26T04:35:07;20.40;99.90
19892;DHT22;10108;50.142;8.724;2023-06-26T04:37:33;20.50;99.90
19892;DHT22;10108;50.142;8.724;2023-06-26T04:39:59;20.50;99.90
19892;DHT22;10108;50.142;8.724;2023-06-26T04:42:25;20.50;99.90
19892;DHT22;10108;50.142;8.724;2023-06-26T04:44:51;20.50;99.90
19892;DHT22;10108;50.142;8.724;2023-06-26T04:47:18;20.50;99.90
19892;DHT22;10108;50.142;8.724;2023-06-26T04:49:44;20.60;99.90
19892;DHT22;10108;50.142;8.724;2023-06-26T04:52:12;20.60;99.90
19892;DHT22;10108;50.142;8.724;2023-06-26T04:54:41;20.60;99.90
19892;DHT22;10108;50.142;8.724;2023-06-26T04:57:07;20.60;99.90
19892;DHT22;10108;50.142;8.724;2023-06-26T04:59:34;20.60;99.90
19892;DHT22;10108;50.142;8.724;2023-06-26T05:02:01;20.60;99.90
19892;DHT22;10108;50.142;8.724;2023-06-26T05:04:27;20.70;99.90
19892;DHT22;10108;50.142;8.724;2023-06-26T05:06:53;20.70;99.90
19892;DHT22;10108;50.142;8.724;2023-06-26T05:09:19;20.70;99.90
19892;DHT22;10108;50.142;8.724;2023-06-26T05:11:45;20.70;99.90
19892;DHT22;10108;50.142;8.724;2023-06-26T05:14:11;20.70;99.90
19892;DHT22;10108;50.142;8.724;2023-06-26T05:16:39;20.80;99.90
19892;DHT22;10108;50.142;8.724;2023-06-26T05:19:05;20.80;99.90
19892;DHT22;10108;50.142;8.724;2023-06-26T05:21:31;20.80;99.90
19892;DHT22;10108;50.142;8.724;2023-06-26T05:23:57;20.80;99.90
19892;DHT22;10108;50.142;8.724;2023-06-26T05:26:25;20.90;99.90
19892;DHT22;10108;50.142;8.724;2023-06-26T05:28:51;20.90;99.90
19892;DHT22;10108;50.142;8.724;2023-06-26T05:31:18;21.00;99.90
19892;DHT22;10108;50.142;8.724;2023-06-26T05:33:45;21.00;99.90
19892;DHT22;10108;50.142;8.724;2023-06-26T05:36:13;21.10;99.90
19892;DHT22;10108;50.142;8.724;2023-06-26T05:38:40;21.10;99.90
19892;DHT22;10108;50.142;8.724;2023-06-26T05:41:06;21.20;99.90
19892;DHT22;10108;50.142;8.724;2023-06-26T05:43:32;21.30;99.90
19892;DHT22;10108;50.142;8.724;2023-06-26T05:45:58;21.40;99.90
19892;DHT22;10108;50.142;8.724;2023-06-26T05:48:25;21.40;99.90
19892;DHT22;10108;50.142;8.724;2023-06-26T05:50:51;21.50;99.90
19892;DHT22;10108;50.142;8.724;2023-06-26T05:53:17;21.60;99.90
19892;DHT22;10108;50.142;8.724;2023-06-26T05:55:44;21.60;99.80
19892;DHT22;10108;50.142;8.724;2023-06-26T05:58:10;21.70;99.90
19892;DHT22;10108;50.142;8.724;2023-06-26T06:00:39;21.70;99.90
19892;DHT22;10108;50.142;8.724;2023-06-26T06:03:06;21.80;99.90
19892;DHT22;10108;50.142;8.724;2023-06-26T06:05:32;21.80;99.70
19892;DHT22;10108;50.142;8.724;2023-06-26T06:07:58;21.90;99.90
19892;DHT22;10108;50.142;8.724;2023-06-26T06:10:24;21.90;99.80
19892;DHT22;10108;50.142;8.724;2023-06-26T06:12:50;21.90;99.70
19892;DHT22;10108;50.142;8.724;2023-06-26T06:15:17;22.00;99.60
19892;DHT22;10108;50.142;8.724;2023-06-26T06:17:43;22.00;99.30
19892;DHT22;10108;50.142;8.724;2023-06-26T06:20:10;22.00;99.20
19892;DHT22;10108;50.142;8.724;2023-06-26T06:22:36;22.00;98.80
19892;DHT22;10108;50.142;8.724;2023-06-26T06:25:02;22.00;98.90
19892;DHT22;10108;50.142;8.724;2023-06-26T06:27:29;22.10;98.50
19892;DHT22;10108;50.142;8.724;2023-06-26T06:29:56;22.10;98.50
19892;DHT22;10108;50.142;8.724;2023-06-26T06:32:23;22.10;98.60
19892;DHT22;10108;50.142;8.724;2023-06-26T06:34:49;22.10;98.60
19892;DHT22;10108;50.142;8.724;2023-06-26T06:37:15;22.10;98.00
19892;DHT22;10108;50.142;8.724;2023-06-26T06:39:41;22.10;97.10
19892;DHT22;10108;50.142;8.724;2023-06-26T06:42:07;22.10;96.90
19892;DHT22;10108;50.142;8.724;2023-06-26T06:44:34;22.20;97.40
19892;DHT22;10108;50.142;8.724;2023-06-26T06:47:00;22.10;97.60
19892;DHT22;10108;50.142;8.724;2023-06-26T06:49:26;22.10;98.00
19892;DHT22;10108;50.142;8.724;2023-06-26T06:51:52;22.10;97.40
19892;DHT22;10108;50.142;8.724;2023-06-26T06:54:18;22.10;97.20
19892;DHT22;10108;50.142;8.724;2023-06-26T06:56:45;22.20;97.30
19892;DHT22;10108;50.142;8.724;2023-06-26T06:59:11;22.20;97.60
19892;DHT22;10108;50.142;8.724;2023-06-26T07:01:39;22.20;97.50
19892;DHT22;10108;50.142;8.724;2023-06-26T07:04:05;22.20;97.20
19892;DHT22;10108;50.142;8.724;2023-06-26T07:06:32;22.20;97.10
19892;DHT22;10108;50.142;8.724;2023-06-26T07:08:58;22.20;97.10
19892;DHT22;10108;50.142;8.724;2023-06-26T07:11:24;22.20;97.40
19892;DHT22;10108;50.142;8.724;2023-06-26T07:13:50;22.20;97.50
19892;DHT22;10108;50.142;8.724;2023-06-26T07:16:16;22.20;97.90
19892;DHT22;10108;50.142;8.724;2023-06-26T07:18:42;22.20;97.70
19892;DHT22;10108;50.142;8.724;2023-06-26T07:21:09;22.30;98.30
19892;DHT22;10108;50.142;8.724;2023-06-26T07:23:35;22.30;98.40
19892;DHT22;10108;50.142;8.724;2023-06-26T07:26:01;22.30;98.10
19892;DHT22;10108;50.142;8.724;2023-06-26T07:28:27;22.30;98.50
19892;DHT22;10108;50.142;8.724;2023-06-26T07:30:53;22.30;98.20
19892;DHT22;10108;50.142;8.724;2023-06-26T07:33:20;22.30;97.80
19892;DHT22;10108;50.142;8.724;2023-06-26T07:35:46;22.40;97.60
19892;DHT22;10108;50.142;8.724;2023-06-26T07:38:12;22.40;97.20
19892;DHT22;10108;50.142;8.724;2023-06-26T07:40:39;22.50;97.70
19892;DHT22;10108;50.142;8.724;2023-06-26T07:43:05;22.60;96.70
19892;DHT22;10108;50.142;8.724;2023-06-26T07:45:32;22.60;97.20
19892;DHT22;10108;50.142;8.724;2023-06-26T07:47:58;22.60;98.30
19892;DHT22;10108;50.142;8.724;2023-06-26T07:50:24;22.70;97.20
19892;DHT22;10108;50.142;8.724;2023-06-26T07:52:50;22.70;96.70
19892;DHT22;10108;50.142;8.724;2023-06-26T07:55:18;22.70;97.30
19892;DHT22;10108;50.142;8.724;2023-06-26T07:57:44;22.80;98.00
19892;DHT22;10108;50.142;8.724;2023-06-26T08:00:11;22.80;99.20
19892;DHT22;10108;50.142;8.724;2023-06-26T08:02:41;22.80;98.00
19892;DHT22;10108;50.142;8.724;2023-06-26T08:05:07;22.80;98.00
19892;DHT22;10108;50.142;8.724;2023-06-26T08:07:33;22.90;97.90
19892;DHT22;10108;50.142;8.724;2023-06-26T08:09:59;22.90;96.80
19892;DHT22;10108;50.142;8.724;2023-06-26T08:12:25;22.90;97.30
19892;DHT22;10108;50.142;8.724;2023-06-26T08:14:52;23.00;96.60
19892;DHT22;10108;50.142;8.724;2023-06-26T08:17:18;23.00;96.70
19892;DHT22;10108;50.142;8.724;2023-06-26T08:19:44;23.00;96.80
19892;DHT22;10108;50.142;8.724;2023-06-26T08:22:10;23.10;96.90
19892;DHT22;10108;50.142;8.724;2023-06-26T08:24:36;23.10;97.00
19892;DHT22;10108;50.142;8.724;2023-06-26T08:27:03;23.20;98.70
19892;DHT22;10108;50.142;8.724;2023-06-26T08:29:29;23.20;98.80
19892;DHT22;10108;50.142;8.724;2023-06-26T08:31:55;23.20;98.10
19892;DHT22;10108;50.142;8.724;2023-06-26T08:34:21;23.30;97.80
19892;DHT22;10108;50.142;8.724;2023-06-26T08:36:47;23.30;96.90
19892;DHT22;10108;50.142;8.724;2023-06-26T08:39:13;23.50;95.70
19892;DHT22;10108;50.142;8.724;2023-06-26T08:41:40;23.60;95.90
19892;DHT22;10108;50.142;8.724;2023-06-26T08:44:06;23.60;96.70
19892;DHT22;10108;50.142;8.724;2023-06-26T08:46:33;23.70;98.10
19892;DHT22;10108;50.142;8.724;2023-06-26T08:49:21;23.70;96.50
19892;DHT22;10108;50.142;8.724;2023-06-26T08:51:59;23.70;96.60
19892;DHT22;10108;50.142;8.724;2023-06-26T08:54:33;23.70;98.80
19892;DHT22;10108;50.142;8.724;2023-06-26T08:57:01;23.70;98.50
19892;DHT22;10108;50.142;8.724;2023-06-26T08:59:29;23.80;95.00
19892;DHT22;10108;50.142;8.724;2023-06-26T09:01:55;23.90;96.00
19892;DHT22;10108;50.142;8.724;2023-06-26T09:04:21;23.90;95.30
19892;DHT22;10108;50.142;8.724;2023-06-26T09:06:47;24.00;95.00
19892;DHT22;10108;50.142;8.724;2023-06-26T09:09:13;24.00;96.60
19892;DHT22;10108;50.142;8.724;2023-06-26T09:11:39;23.90;99.40
19892;DHT22;10108;50.142;8.724;2023-06-26T09:14:06;23.80;97.50
19892;DHT22;10108;50.142;8.724;2023-06-26T09:16:40;23.90;95.30
19892;DHT22;10108;50.142;8.724;2023-06-26T09:19:09;23.90;97.20
19892;DHT22;10108;50.142;8.724;2023-06-26T09:21:39;23.90;97.30
19892;DHT22;10108;50.142;8.724;2023-06-26T09:24:07;24.00;96.00
19892;DHT22;10108;50.142;8.724;2023-06-26T09:26:36;24.10;97.30
19892;DHT22;10108;50.142;8.724;2023-06-26T09:29:03;24.10;98.10
19892;DHT22;10108;50.142;8.724;2023-06-26T09:31:29;24.20;98.70
19892;DHT22;10108;50.142;8.724;2023-06-26T09:33:59;24.30;96.20
19892;DHT22;10108;50.142;8.724;2023-06-26T09:36:28;24.40;96.10
19892;DHT22;10108;50.142;8.724;2023-06-26T09:38:55;24.50;97.00
19892;DHT22;10108;50.142;8.724;2023-06-26T09:41:22;24.50;95.90
19892;DHT22;10108;50.142;8.724;2023-06-26T09:43:49;24.40;97.10
19892;DHT22;10108;50.142;8.724;2023-06-26T09:46:17;24.30;96.00
19892;DHT22;10108;50.142;8.724;2023-06-26T09:48:44;24.30;95.70
19892;DHT22;10108;50.142;8.724;2023-06-26T09:51:10;24.20;97.20
19892;DHT22;10108;50.142;8.724;2023-06-26T09:53:36;24.20;96.90
19892;DHT22;10108;50.142;8.724;2023-06-26T09:56:06;24.20;95.50
19892;DHT22;10108;50.142;8.724;2023-06-26T09:58:33;24.40;94.60
19892;DHT22;10108;50.142;8.724;2023-06-26T10:01:00;24.50;95.30
19892;DHT22;10108;50.142;8.724;2023-06-26T10:03:26;24.50;95.90
19892;DHT22;10108;50.142;8.724;2023-06-26T10:05:53;24.50;96.00
19892;DHT22;10108;50.142;8.724;2023-06-26T10:08:21;24.60;95.90
19892;DHT22;10108;50.142;8.724;2023-06-26T10:10:48;24.60;95.90
19892;DHT22;10108;50.142;8.724;2023-06-26T10:13:37;24.70;96.40
19892;DHT22;10108;50.142;8.724;2023-06-26T10:16:06;24.60;96.50
19892;DHT22;10108;50.142;8.724;2023-06-26T10:18:34;24.60;96.20
19892;DHT22;10108;50.142;8.724;2023-06-26T10:21:01;24.60;96.60
19892;DHT22;10108;50.142;8.724;2023-06-26T10:23:30;24.70;97.40
19892;DHT22;10108;50.142;8.724;2023-06-26T10:25:58;24.70;96.60
19892;DHT22;10108;50.142;8.724;2023-06-26T10:28:28;24.80;96.00
19892;DHT22;10108;50.142;8.724;2023-06-26T10:30:58;24.90;95.30
19892;DHT22;10108;50.142;8.724;2023-06-26T10:33:24;24.90;98.70
19892;DHT22;10108;50.142;8.724;2023-06-26T10:35:51;24.90;95.80
19892;DHT22;10108;50.142;8.724;2023-06-26T10:38:17;24.90;96.30
19892;DHT22;10108;50.142;8.724;2023-06-26T10:40:46;24.90;96.50
19892;DHT22;10108;50.142;8.724;2023-06-26T10:43:13;24.90;96.90
19892;DHT22;10108;50.142;8.724;2023-06-26T10:45:48;24.80;97.20
19892;DHT22;10108;50.142;8.724;2023-06-26T10:48:18;24.80;97.40
19892;DHT22;10108;50.142;8.724;2023-06-26T10:50:48;24.70;97.60
19892;DHT22;10108;50.142;8.724;2023-06-26T10:55:54;24.50;98.20
19892;DHT22;10108;50.142;8.724;2023-06-26T10:58:29;24.50;97.00
19892;DHT22;10108;50.142;8.724;2023-06-26T11:03:38;24.60;97.40
19892;DHT22;10108;50.142;8.724;2023-06-26T11:11:16;24.60;98.90
19892;DHT22;10108;50.142;8.724;2023-06-26T11:13:45;24.60;97.60
19892;DHT22;10108;50.142;8.724;2023-06-26T11:16:37;24.60;94.90
19892;DHT22;10108;50.142;8.724;2023-06-26T11:19:29;24.60;97.70
19892;DHT22;10108;50.142;8.724;2023-06-26T11:22:24;24.50;98.20
19892;DHT22;10108;50.142;8.724;2023-06-26T11:25:16;24.50;99.90
19892;DHT22;10108;50.142;8.724;2023-06-26T11:28:09;24.50;96.90
19892;DHT22;10108;50.142;8.724;2023-06-26T11:30:38;24.50;97.50
19892;DHT22;10108;50.142;8.724;2023-06-26T11:33:10;24.50;99.30
19892;DHT22;10108;50.142;8.724;2023-06-26T11:36:08;24.40;98.20
19892;DHT22;10108;50.142;8.724;2023-06-26T11:39:01;24.40;98.30
19892;DHT22;10108;50.142;8.724;2023-06-26T11:41:54;24.40;98.10
19892;DHT22;10108;50.142;8.724;2023-06-26T11:44:48;24.50;96.10
19892;DHT22;10108;50.142;8.724;2023-06-26T11:48:05;24.60;97.00
19892;DHT22;10108;50.142;8.724;2023-06-26T11:50:32;24.60;99.00
19892;DHT22;10108;50.142;8.724;2023-06-26T11:53:03;24.50;99.90
19892;DHT22;10108;50.142;8.724;2023-06-26T11:55:41;24.40;99.90
19892;DHT22;10108;50.142;8.724;2023-06-26T11:58:07;24.30;99.90
19892;DHT22;10108;50.142;8.724;2023-06-26T12:00:33;24.30;99.90
19892;DHT22;10108;50.142;8.724;2023-06-26T12:02:59;24.30;99.90
19892;DHT22;10108;50.142;8.724;2023-06-26T12:05:32;24.30;99.90
19892;DHT22;10108;50.142;8.724;2023-06-26T12:08:02;24.30;99.90
19892;DHT22;10108;50.142;8.724;2023-06-26T12:10:33;24.40;99.90
19892;DHT22;10108;50.142;8.724;2023-06-26T12:12:59;24.40;99.90
19892;DHT22;10108;50.142;8.724;2023-06-26T12:15:28;24.30;99.90
19892;DHT22;10108;50.142;8.724;2023-06-26T12:17:54;24.40;99.90
19892;DHT22;10108;50.142;8.724;2023-06-26T12:20:22;24.30;99.90
19892;DHT22;10108;50.142;8.724;2023-06-26T12:22:49;24.30;98.90
19892;DHT22;10108;50.142;8.724;2023-06-26T12:25:16;24.40;99.90
19892;DHT22;10108;50.142;8.724;2023-06-26T12:27:46;24.40;99.90
19892;DHT22;10108;50.142;8.724;2023-06-26T12:30:13;24.40;99.90
19892;DHT22;10108;50.142;8.724;2023-06-26T12:32:39;24.40;99.90
19892;DHT22;10108;50.142;8.724;2023-06-26T12:35:05;24.40;99.90
19892;DHT22;10108;50.142;8.724;2023-06-26T12:37:36;24.50;99.50
19892;DHT22;10108;50.142;8.724;2023-06-26T12:40:04;24.50;98.50
19892;DHT22;10108;50.142;8.724;2023-06-26T12:42:33;24.60;98.30
19892;DHT22;10108;50.142;8.724;2023-06-26T12:44:59;24.70;98.10
19892;DHT22;10108;50.142;8.724;2023-06-26T12:47:35;24.70;97.60
19892;DHT22;10108;50.142;8.724;2023-06-26T12:50:07;24.80;97.50
19892;DHT22;10108;50.142;8.724;2023-06-26T12:52:33;24.90;97.30
19892;DHT22;10108;50.142;8.724;2023-06-26T12:55:00;25.00;96.80
19892;DHT22;10108;50.142;8.724;2023-06-26T12:57:26;25.00;96.90
19892;DHT22;10108;50.142;8.724;2023-06-26T12:59:52;25.10;96.50
19892;DHT22;10108;50.142;8.724;2023-06-26T13:02:18;25.10;96.30
19892;DHT22;10108;50.142;8.724;2023-06-26T13:04:45;25.10;96.40
19892;DHT22;10108;50.142;8.724;2023-06-26T13:07:11;25.10;96.50
19892;DHT22;10108;50.142;8.724;2023-06-26T13:09:37;25.10;96.70
19892;DHT22;10108;50.142;8.724;2023-06-26T13:12:06;25.00;97.40
19892;DHT22;10108;50.142;8.724;2023-06-26T13:14:33;25.00;97.90
19892;DHT22;10108;50.142;8.724;2023-06-26T13:17:00;24.90;97.80
19892;DHT22;10108;50.142;8.724;2023-06-26T13:19:27;24.90;97.80
19892;DHT22;10108;50.142;8.724;2023-06-26T13:21:53;24.90;97.20
19892;DHT22;10108;50.142;8.724;2023-06-26T13:24:20;24.90;97.80
19892;DHT22;10108;50.142;8.724;2023-06-26T13:26:46;24.90;99.20
19892;DHT22;10108;50.142;8.724;2023-06-26T13:29:12;24.90;99.90
19892;DHT22;10108;50.142;8.724;2023-06-26T13:31:38;24.80;98.40
19892;DHT22;10108;50.142;8.724;2023-06-26T13:34:04;24.90;98.60
19892;DHT22;10108;50.142;8.724;2023-06-26T13:36:31;24.80;99.70
19892;DHT22;10108;50.142;8.724;2023-06-26T13:39:00;24.80;99.90
19892;DHT22;10108;50.142;8.724;2023-06-26T13:41:26;24.90;99.90
19892;DHT22;10108;50.142;8.724;2023-06-26T13:43:52;24.90;98.60
19892;DHT22;10108;50.142;8.724;2023-06-26T13:46:18;25.00;99.60
19892;DHT22;10108;50.142;8.724;2023-06-26T13:48:45;25.00;99.90
19892;DHT22;10108;50.142;8.724;2023-06-26T13:51:12;24.90;99.90
19892;DHT22;10108;50.142;8.724;2023-06-26T13:53:38;24.80;99.90
19892;DHT22;10108;50.142;8.724;2023-06-26T13:56:04;24.70;99.90
19892;DHT22;10108;50.142;8.724;2023-06-26T13:58:30;24.60;98.00
19892;DHT22;10108;50.142;8.724;2023-06-26T14:00:59;24.70;97.80
19892;DHT22;10108;50.142;8.724;2023-06-26T14:03:26;24.70;97.80
19892;DHT22;10108;50.142;8.724;2023-06-26T14:05:53;24.80;99.10
19892;DHT22;10108;50.142;8.724;2023-06-26T14:08:19;24.80;98.20
19892;DHT22;10108;50.142;8.724;2023-06-26T14:10:45;24.80;97.30
19892;DHT22;10108;50.142;8.724;2023-06-26T14:13:12;24.90;97.70
19892;DHT22;10108;50.142;8.724;2023-06-26T14:15:41;24.90;97.80
19892;DHT22;10108;50.142;8.724;2023-06-26T14:18:08;24.90;98.50
19892;DHT22;10108;50.142;8.724;2023-06-26T14:20:34;24.90;98.30
19892;DHT22;10108;50.142;8.724;2023-06-26T14:23:01;24.90;97.80
19892;DHT22;10108;50.142;8.724;2023-06-26T14:25:28;24.90;96.60
19892;DHT22;10108;50.142;8.724;2023-06-26T14:27:58;25.10;96.60
19892;DHT22;10108;50.142;8.724;2023-06-26T14:30:25;25.10;98.00
19892;DHT22;10108;50.142;8.724;2023-06-26T14:32:51;25.10;95.90
19892;DHT22;10108;50.142;8.724;2023-06-26T14:35:17;25.10;95.30
19892;DHT22;10108;50.142;8.724;2023-06-26T14:37:43;25.10;94.50
19892;DHT22;10108;50.142;8.724;2023-06-26T14:40:10;25.10;94.80
19892;DHT22;10108;50.142;8.724;2023-06-26T14:42:36;25.10;94.30
19892;DHT22;10108;50.142;8.724;2023-06-26T14:45:03;25.10;93.20
19892;DHT22;10108;50.142;8.724;2023-06-26T14:47:29;25.10;92.50
19892;DHT22;10108;50.142;8.724;2023-06-26T14:49:55;25.20;92.00
19892;DHT22;10108;50.142;8.724;2023-06-26T14:52:21;25.10;92.00
19892;DHT22;10108;50.142;8.724;2023-06-26T14:54:48;25.10;92.30
19892;DHT22;10108;50.142;8.724;2023-06-26T14:57:14;25.10;92.50
19892;DHT22;10108;50.142;8.724;2023-06-26T14:59:40;25.10;92.10
19892;DHT22;10108;50.142;8.724;2023-06-26T15:02:06;25.10;90.30
19892;DHT22;10108;50.142;8.724;2023-06-26T15:04:32;25.10;90.50
19892;DHT22;10108;50.142;8.724;2023-06-26T15:06:58;25.10;91.60
19892;DHT22;10108;50.142;8.724;2023-06-26T15:09:25;25.10;91.60
19892;DHT22;10108;50.142;8.724;2023-06-26T15:11:51;25.10;90.60
19892;DHT22;10108;50.142;8.724;2023-06-26T15:14:17;25.10;91.70
19892;DHT22;10108;50.142;8.724;2023-06-26T15:16:44;25.10;93.50
19892;DHT22;10108;50.142;8.724;2023-06-26T15:19:10;25.10;92.30
19892;DHT22;10108;50.142;8.724;2023-06-26T15:21:36;25.10;90.20
19892;DHT22;10108;50.142;8.724;2023-06-26T15:24:02;25.10;90.00
19892;DHT22;10108;50.142;8.724;2023-06-26T15:26:28;25.10;91.00
19892;DHT22;10108;50.142;8.724;2023-06-26T15:28:54;25.10;89.60
19892;DHT22;10108;50.142;8.724;2023-06-26T15:31:20;25.00;90.90
19892;DHT22;10108;50.142;8.724;2023-06-26T15:33:47;25.00;91.70
19892;DHT22;10108;50.142;8.724;2023-06-26T15:36:13;25.00;90.40
19892;DHT22;10108;50.142;8.724;2023-06-26T15:38:39;24.90;90.10
19892;DHT22;10108;50.142;8.724;2023-06-26T15:41:05;24.90;91.00
19892;DHT22;10108;50.142;8.724;2023-06-26T15:43:32;24.80;90.80
19892;DHT22;10108;50.142;8.724;2023-06-26T15:45:59;24.90;90.00
19892;DHT22;10108;50.142;8.724;2023-06-26T15:48:25;24.90;90.80
19892;DHT22;10108;50.142;8.724;2023-06-26T15:50:53;24.90;89.10